Phoenix, Arizona
Current Conditions -  °F | °C
As of 8:51 PM on Monday 22 Dec 2014 (Local Time) from KPHX Reporting Station
Clear Clear  
Wind Chill: 57°   Ceiling: Unl
Heat Index: 57°   Visibility: 10mi
Dew Point: 44°   Wind: 5mph
Humidity: 62%   Direction: 110°ESE
Pressure: 29.92"   Gusts: NA
Location:  33.45°N, 112.08°W
Report Text: KPHX 230351Z 11004KT 10SM CLR 14/07 A2992 RMK AO2 SLP126 T01390067
Loading
Personal Weather Stations






























Interactive Weather Map New forecast layout! Learn more

10-Day Weather Forecast

Advertisements
Track Severe Weather on mobile